Pagrindinis puslapis
METAR-TAF:

METAR-TAF

Oro uostai :

Bukareštas-Băneasa, Rumunija

platuma: 44-30N, ilguma: 026-08E, Aukštis: 90 m

Dabartinis oras

Ataskaita buvo paskelbta 37 minutes, ne 20:00 UTC
Vėjas 1 kt iš Vakarų/Pietvakarių
Temperatūra 6°C
Drėgmė 87%
Slėgis 1021 hPa
Matomumas 10 km arba daugiau
Sekli rūkas

METAR: LRBS 152000Z 25001KT 9999 MIFG NSC 06/04 Q1021 NOSIG

Laikas: 22:37 (20:37 UTC)

Prognozė

Ataskaita buvo paskelbta 3 valandos ir 37 minutes, ne 17:00 UTC
Prognozė galioja nuo 15 metu 18 UTC su 16 metu 18 UTC
Vėjas 7 kt iš Vakarų/Pietvakarių
Matomumas 10 km arba daugiau
nėra debesų žemiau 1500 m ir nėra kamuolinių lietaus debesų
Laikinai
nuo 16 metu 02 UTC su 16 metu 05 UTC
Matomumas: 3000 m
rūkana

TAF: LRBS 151700Z 1518/1618 24007KT CAVOK TEMPO 1602/1605 3000 BR

Orai ataskaitas ir orų prognozės (METAR, TAF).

turimą stotys yra geltonos ir raudonos taškus žemėlapyje.

Perkelti pele per norėdami pamatyti stoties vardą.

Tada spustelėkite, norėdami matyti oro stebėjimo ir prognozės.

Norėdami pakeisti žemėlapį: spustelėkite ant žalios mygtukų su juodo kryžiaus žemyn,; žalią mygtuką su brūkšneliu, jei norite nutolinti; arba žalių rodyklių gretimoms žemėlapius.


METAR-TAF: